createdAt,value
2022-11-12T00:00:59.460Z,0.40
2022-11-12T00:03:27.079Z,0.37
2022-11-12T00:05:54.591Z,0.40
2022-11-12T00:08:22.732Z,0.23
2022-11-12T00:10:50.259Z,0.30
2022-11-12T00:13:17.810Z,0.30
2022-11-12T00:15:46.713Z,0.30
2022-11-12T00:18:14.200Z,0.40
2022-11-12T00:20:41.684Z,0.30
2022-11-12T00:23:09.126Z,0.20
2022-11-12T00:25:36.900Z,0.47
2022-11-12T00:28:05.886Z,0.30
2022-11-12T00:30:33.387Z,0.30
2022-11-12T00:33:04.456Z,0.50
2022-11-12T00:35:33.341Z,0.30
2022-11-12T00:38:01.210Z,0.30
2022-11-12T00:40:28.936Z,0.30
2022-11-12T00:42:56.471Z,0.50
2022-11-12T00:45:23.990Z,0.20
2022-11-12T00:47:57.797Z,0.23
2022-11-12T00:50:25.659Z,0.30
2022-11-12T00:52:54.091Z,0.33
2022-11-12T00:55:21.634Z,0.30
2022-11-12T00:57:49.078Z,0.30
2022-11-12T01:00:17.818Z,0.20
2022-11-12T01:02:50.466Z,0.20
2022-11-12T01:05:18.893Z,0.30
2022-11-12T01:07:48.446Z,0.30
2022-11-12T01:10:19.096Z,0.20
2022-11-12T01:12:46.513Z,0.30
2022-11-12T01:15:13.844Z,0.33
2022-11-12T01:17:41.317Z,1.03
2022-11-12T01:20:09.001Z,0.40
2022-11-12T01:22:36.453Z,0.30
2022-11-12T01:25:04.056Z,0.30
2022-11-12T01:27:31.479Z,0.20
2022-11-12T01:29:59.640Z,0.13
2022-11-12T01:32:28.136Z,0.33
2022-11-12T01:34:55.475Z,0.30
2022-11-12T01:37:22.916Z,0.20
2022-11-12T01:39:52.724Z,0.27
2022-11-12T01:42:20.013Z,0.20
2022-11-12T01:44:48.419Z,0.10
2022-11-12T01:47:20.866Z,0.20
2022-11-12T01:49:54.266Z,0.23
2022-11-12T01:52:36.017Z,0.20
2022-11-12T01:55:08.361Z,0.20
2022-11-12T01:57:39.320Z,0.20
2022-11-12T02:00:09.055Z,0.23
2022-11-12T02:02:37.596Z,0.13
2022-11-12T02:05:07.392Z,0.20
2022-11-12T02:07:35.410Z,0.37
2022-11-12T02:10:03.772Z,0.10
2022-11-12T02:12:50.197Z,0.30
2022-11-12T02:15:17.754Z,0.20
2022-11-12T02:17:45.154Z,0.20
2022-11-12T02:20:13.637Z,0.30
2022-11-12T02:22:40.968Z,0.20
2022-11-12T02:25:10.293Z,0.40
2022-11-12T02:27:37.763Z,0.23
2022-11-12T02:30:05.378Z,0.20
2022-11-12T02:32:32.808Z,0.10
2022-11-12T02:35:00.155Z,0.20
2022-11-12T02:37:27.523Z,0.17
2022-11-12T02:39:57.632Z,0.23
2022-11-12T02:42:24.972Z,0.30
2022-11-12T02:44:52.427Z,0.20
2022-11-12T02:47:19.716Z,0.20
2022-11-12T02:49:46.997Z,0.20
2022-11-12T02:52:14.341Z,0.10
2022-11-12T02:54:41.630Z,0.20
2022-11-12T02:57:09.055Z,0.23
2022-11-12T02:59:36.751Z,0.10
2022-11-12T03:02:04.062Z,0.10
2022-11-12T03:04:31.416Z,0.20
2022-11-12T03:06:58.744Z,0.20
2022-11-12T03:09:26.104Z,0.30
2022-11-12T03:11:54.928Z,0.30
2022-11-12T03:14:22.194Z,0.20
2022-11-12T03:16:49.651Z,0.20
2022-11-12T03:19:16.964Z,0.20
2022-11-12T03:21:44.259Z,0.27
2022-11-12T03:24:11.718Z,0.20
2022-11-12T03:26:39.023Z,0.20
2022-11-12T03:29:06.368Z,0.30
2022-11-12T03:31:33.886Z,0.20
2022-11-12T03:34:01.187Z,0.13
2022-11-12T03:36:28.508Z,0.10
2022-11-12T03:38:55.846Z,0.10
2022-11-12T03:41:23.201Z,0.20
2022-11-12T03:43:50.522Z,0.10
2022-11-12T03:46:17.804Z,0.20
2022-11-12T03:48:45.109Z,0.10
2022-11-12T03:51:16.416Z,0.20
2022-11-12T03:53:43.817Z,0.10
2022-11-12T03:56:11.296Z,0.20
2022-11-12T03:58:38.621Z,0.20
2022-11-12T04:01:06.023Z,0.20
2022-11-12T04:03:33.500Z,0.30
2022-11-12T04:06:19.341Z,0.20
2022-11-12T04:08:46.645Z,0.10
2022-11-12T04:11:15.304Z,0.30
2022-11-12T04:13:45.729Z,0.20
2022-11-12T04:16:32.858Z,0.10
2022-11-12T04:19:19.574Z,0.20
2022-11-12T04:21:51.245Z,0.10
2022-11-12T04:24:37.282Z,0.10
2022-11-12T04:27:05.166Z,0.20
2022-11-12T04:29:51.246Z,0.20
2022-11-12T04:32:19.144Z,0.20
2022-11-12T04:34:46.558Z,0.20
2022-11-12T04:37:14.021Z,0.20
2022-11-12T04:39:41.359Z,0.30
2022-11-12T04:42:28.630Z,0.40
2022-11-12T04:45:05.446Z,0.20
2022-11-12T04:47:32.759Z,0.10
2022-11-12T04:50:00.227Z,0.20
2022-11-12T04:52:28.159Z,0.20
2022-11-12T04:54:55.611Z,0.20
2022-11-12T04:57:23.327Z,0.30
2022-11-12T04:59:50.758Z,0.20
2022-11-12T05:02:18.560Z,0.30
2022-11-12T05:04:45.905Z,0.20
2022-11-12T05:07:16.739Z,0.30
2022-11-12T05:09:44.475Z,0.20
2022-11-12T05:12:12.088Z,0.13
2022-11-12T05:14:39.471Z,0.40
2022-11-12T05:17:06.917Z,0.40
2022-11-12T05:19:35.209Z,0.20
2022-11-12T05:22:05.836Z,0.30
2022-11-12T05:24:43.180Z,0.30
2022-11-12T05:27:12.229Z,0.13
2022-11-12T05:29:39.823Z,0.17
2022-11-12T05:32:07.964Z,0.20
2022-11-12T05:34:35.705Z,0.13
2022-11-12T05:37:04.010Z,0.20
2022-11-12T05:39:31.381Z,0.37
2022-11-12T05:42:12.393Z,0.30
2022-11-12T05:44:40.474Z,0.20
2022-11-12T05:47:07.732Z,0.30
2022-11-12T05:49:35.101Z,0.20
2022-11-12T05:52:02.386Z,0.20
2022-11-12T05:54:29.722Z,0.20
2022-11-12T05:56:57.148Z,0.30
2022-11-12T05:59:24.590Z,0.17
2022-11-12T06:01:52.055Z,0.30
2022-11-12T06:04:19.489Z,0.30
2022-11-12T06:06:46.937Z,0.10
2022-11-12T06:09:14.399Z,0.20
2022-11-12T06:11:41.700Z,0.20
2022-11-12T06:14:08.983Z,0.30
2022-11-12T06:16:36.371Z,0.10
2022-11-12T06:19:03.747Z,0.20
2022-11-12T06:21:31.061Z,0.30
2022-11-12T06:24:00.552Z,0.40
2022-11-12T06:26:28.924Z,0.30
2022-11-12T06:28:56.412Z,0.20
2022-11-12T06:31:24.171Z,0.20
2022-11-12T06:33:51.875Z,0.40
2022-11-12T06:36:20.260Z,0.60
2022-11-12T06:38:47.909Z,0.40
2022-11-12T06:41:15.583Z,0.50
2022-11-12T06:43:43.315Z,0.30
2022-11-12T06:46:15.460Z,0.30
2022-11-12T06:48:43.155Z,0.47
2022-11-12T06:51:17.568Z,0.50
2022-11-12T06:53:45.133Z,0.20
2022-11-12T06:56:12.803Z,0.33
2022-11-12T06:58:40.682Z,0.20
2022-11-12T07:01:11.946Z,0.33
2022-11-12T07:03:40.397Z,0.60
2022-11-12T07:06:09.096Z,0.70
2022-11-12T07:08:36.692Z,0.30
2022-11-12T07:11:04.535Z,0.63
2022-11-12T07:13:32.696Z,0.50
2022-11-12T07:16:03.542Z,1.23
2022-11-12T07:18:31.413Z,0.63
2022-11-12T07:20:59.955Z,0.47
2022-11-12T07:23:27.859Z,1.27
2022-11-12T07:26:02.624Z,0.50
2022-11-12T07:28:30.516Z,0.90
2022-11-12T07:31:02.214Z,0.70
2022-11-12T07:33:30.295Z,0.70
2022-11-12T07:36:08.078Z,0.47
2022-11-12T07:38:37.178Z,0.40
2022-11-12T07:41:09.469Z,0.50
2022-11-12T07:43:37.514Z,1.50
2022-11-12T07:46:10.294Z,0.90
2022-11-12T07:48:38.903Z,1.00
2022-11-12T07:51:07.601Z,0.93
2022-11-12T07:53:35.203Z,1.20
2022-11-12T07:56:05.804Z,0.90
2022-11-12T07:58:33.982Z,1.10
2022-11-12T08:01:11.583Z,0.70
2022-11-12T08:03:38.984Z,0.60
2022-11-12T08:06:06.543Z,0.50
2022-11-12T08:08:33.909Z,0.40
2022-11-12T08:11:01.323Z,0.63
2022-11-12T08:13:28.703Z,0.63
2022-11-12T08:15:58.098Z,0.80
2022-11-12T08:18:26.250Z,0.80
2022-11-12T08:20:53.899Z,0.83
2022-11-12T08:23:21.234Z,0.67
2022-11-12T08:25:48.687Z,0.63
2022-11-12T08:28:16.072Z,0.70
2022-11-12T08:30:43.560Z,0.60
2022-11-12T08:33:11.017Z,1.20
2022-11-12T08:35:39.557Z,1.30
2022-11-12T08:38:11.006Z,1.00
2022-11-12T08:40:38.501Z,1.20
2022-11-12T08:43:07.372Z,0.60
2022-11-12T08:45:35.755Z,0.70
2022-11-12T08:48:08.237Z,0.70
2022-11-12T08:50:35.905Z,0.70
2022-11-12T08:53:14.094Z,0.70
2022-11-12T08:55:41.533Z,0.77
2022-11-12T08:58:10.568Z,1.00
2022-11-12T09:00:40.101Z,1.07
2022-11-12T09:03:08.401Z,0.93
2022-11-12T09:05:36.477Z,0.80
2022-11-12T09:08:08.627Z,0.80
2022-11-12T09:10:36.136Z,0.97
2022-11-12T09:13:06.872Z,1.00
2022-11-12T09:15:38.767Z,0.90
2022-11-12T09:18:07.678Z,1.00
2022-11-12T09:20:35.180Z,1.10
2022-11-12T09:23:07.393Z,1.17
2022-11-12T09:25:35.554Z,1.30
2022-11-12T09:28:16.395Z,1.10
2022-11-12T09:30:47.715Z,1.20
2022-11-12T09:33:19.449Z,1.50
2022-11-12T09:35:47.410Z,1.33
2022-11-12T09:38:15.466Z,1.00
2022-11-12T09:40:42.907Z,1.10
2022-11-12T09:43:11.897Z,1.03
2022-11-12T09:45:39.379Z,0.70
2022-11-12T09:48:09.419Z,0.90
2022-11-12T09:50:43.768Z,1.00
2022-11-12T09:53:24.014Z,0.87
2022-11-12T09:55:51.505Z,0.80
2022-11-12T09:58:19.531Z,0.63
2022-11-12T10:00:57.221Z,0.63
2022-11-12T10:03:27.341Z,0.60
2022-11-12T10:05:59.262Z,0.63
2022-11-12T10:08:38.960Z,0.80
2022-11-12T10:11:06.315Z,1.13
2022-11-12T10:13:36.658Z,1.57
2022-11-12T10:16:45.611Z,1.80
2022-11-12T10:19:13.032Z,0.70
2022-11-12T10:21:59.008Z,0.63
2022-11-12T10:24:28.849Z,0.57
2022-11-12T10:26:57.988Z,0.60
2022-11-12T10:29:51.677Z,0.40
2022-11-12T10:32:19.262Z,0.30
2022-11-12T10:34:46.636Z,0.60
2022-11-12T10:37:18.502Z,0.60
2022-11-12T10:39:47.770Z,0.60
2022-11-12T10:42:16.421Z,0.60
2022-11-12T10:44:44.032Z,0.70
2022-11-12T10:47:14.157Z,0.70
2022-11-12T10:49:41.597Z,0.80
2022-11-12T10:52:21.402Z,0.60
2022-11-12T10:54:54.822Z,0.90
2022-11-12T10:57:22.569Z,0.70
2022-11-12T11:00:07.669Z,0.70
2022-11-12T11:02:35.509Z,0.60
2022-11-12T11:05:21.401Z,0.77
2022-11-12T11:07:51.866Z,0.60
2022-11-12T11:10:26.639Z,0.53
2022-11-12T11:13:14.213Z,0.60
2022-11-12T11:15:41.590Z,0.67
2022-11-12T11:18:13.281Z,0.73
2022-11-12T11:20:49.239Z,0.73
2022-11-12T11:23:23.059Z,0.50
2022-11-12T11:25:52.233Z,0.50
2022-11-12T11:28:27.725Z,0.50
2022-11-12T11:31:02.827Z,0.50
2022-11-12T11:33:39.920Z,0.60
2022-11-12T11:36:10.044Z,0.50
2022-11-12T11:38:56.060Z,0.53
2022-11-12T11:41:24.090Z,0.80
2022-11-12T11:44:03.800Z,0.70
2022-11-12T11:46:37.259Z,0.40
2022-11-12T11:49:37.000Z,0.50
2022-11-12T11:52:19.431Z,0.57
2022-11-12T11:54:46.835Z,0.47
2022-11-12T11:57:18.445Z,0.60
2022-11-12T11:59:51.517Z,0.50
2022-11-12T12:02:18.890Z,0.40
2022-11-12T12:05:03.899Z,0.60
2022-11-12T12:07:40.312Z,0.60
2022-11-12T12:10:53.271Z,0.57
2022-11-12T12:13:22.707Z,0.50
2022-11-12T12:16:01.923Z,1.60
2022-11-12T12:18:53.484Z,4.50
2022-11-12T12:21:21.402Z,1.00
2022-11-12T12:23:48.784Z,0.80
2022-11-12T12:26:22.165Z,0.70
2022-11-12T12:28:55.123Z,1.20
2022-11-12T12:31:25.333Z,0.97
2022-11-12T12:34:18.983Z,0.73
2022-11-12T12:36:47.520Z,0.67
2022-11-12T12:39:16.090Z,0.67
2022-11-12T12:42:03.684Z,1.00
2022-11-12T12:44:54.435Z,1.70
2022-11-12T12:47:21.940Z,1.30
2022-11-12T12:49:50.225Z,7.27
2022-11-12T12:52:17.572Z,1.77
2022-11-12T12:54:54.197Z,2.13
2022-11-12T12:57:27.660Z,1.10
2022-11-12T13:00:15.591Z,0.70
2022-11-12T13:02:43.300Z,3.07
2022-11-12T13:05:43.043Z,3.83
2022-11-12T13:08:24.904Z,0.83
2022-11-12T13:10:52.954Z,0.70
2022-11-12T13:13:20.977Z,0.60
2022-11-12T13:15:55.692Z,0.60
2022-11-12T13:18:38.453Z,0.57
2022-11-12T13:21:16.484Z,0.60
2022-11-12T13:24:05.596Z,0.57
2022-11-12T13:26:48.120Z,0.50
2022-11-12T13:29:24.720Z,0.80
2022-11-12T13:32:12.407Z,1.20
2022-11-12T13:34:40.141Z,1.10
2022-11-12T13:37:13.894Z,0.90
2022-11-12T13:39:41.505Z,1.07
2022-11-12T13:42:35.539Z,0.93
2022-11-12T13:45:03.299Z,1.13
2022-11-12T13:47:32.606Z,1.07
2022-11-12T13:50:01.567Z,1.23
2022-11-12T13:52:29.593Z,0.97
2022-11-12T13:55:07.874Z,1.00
2022-11-12T13:57:35.318Z,1.30
2022-11-12T14:00:28.612Z,0.97
2022-11-12T14:03:01.485Z,1.30
2022-11-12T14:05:30.369Z,1.20
2022-11-12T14:08:06.997Z,1.10
2022-11-12T14:11:06.684Z,1.43
2022-11-12T14:13:46.146Z,1.47
2022-11-12T14:16:28.801Z,1.50
2022-11-12T14:19:03.661Z,0.97
2022-11-12T14:21:31.072Z,1.50
2022-11-12T14:24:02.662Z,1.17
2022-11-12T14:26:35.961Z,1.30
2022-11-12T14:29:03.416Z,1.20
2022-11-12T14:31:30.925Z,1.70
2022-11-12T14:33:58.306Z,1.30
2022-11-12T14:36:27.779Z,1.67
2022-11-12T14:38:57.683Z,1.57
2022-11-12T14:41:36.255Z,1.80
2022-11-12T14:44:12.563Z,1.50
2022-11-12T14:46:46.745Z,1.83
2022-11-12T14:49:23.176Z,1.40
2022-11-12T14:52:00.807Z,1.40
2022-11-12T14:54:50.556Z,1.17
2022-11-12T14:57:36.474Z,1.33
2022-11-12T15:00:18.958Z,1.20
2022-11-12T15:02:57.781Z,1.30
2022-11-12T15:05:30.436Z,1.40
2022-11-12T15:07:57.767Z,1.30
2022-11-12T15:10:36.523Z,1.20
2022-11-12T15:13:24.252Z,1.90
2022-11-12T15:16:04.423Z,2.33
2022-11-12T15:18:33.822Z,3.17
2022-11-12T15:21:13.136Z,3.40
2022-11-12T15:23:51.026Z,2.40
2022-11-12T15:26:44.486Z,2.20
2022-11-12T15:29:11.870Z,1.50
2022-11-12T15:31:48.258Z,1.40
2022-11-12T15:34:28.005Z,1.30
2022-11-12T15:36:56.729Z,1.43
2022-11-12T15:39:25.322Z,1.47
2022-11-12T15:42:03.278Z,1.20
2022-11-12T15:44:35.034Z,0.90
2022-11-12T15:47:02.753Z,0.60
2022-11-12T15:49:30.189Z,0.90
2022-11-12T15:51:57.545Z,2.67
2022-11-12T15:54:25.606Z,3.97
2022-11-12T15:56:53.547Z,4.50
2022-11-12T15:59:20.902Z,3.27
2022-11-12T16:01:48.402Z,2.17
2022-11-12T16:04:16.005Z,1.53
2022-11-12T16:06:43.419Z,1.87
2022-11-12T16:09:10.881Z,2.20
2022-11-12T16:11:38.363Z,1.80
2022-11-12T16:14:06.921Z,1.60
2022-11-12T16:16:34.650Z,1.87
2022-11-12T16:19:02.043Z,1.70
2022-11-12T16:21:29.458Z,2.20
2022-11-12T16:23:57.038Z,3.13
2022-11-12T16:26:27.271Z,2.40
2022-11-12T16:28:54.752Z,1.90
2022-11-12T16:31:22.285Z,1.37
2022-11-12T16:33:49.679Z,0.73
2022-11-12T16:36:17.697Z,0.80
2022-11-12T16:38:46.547Z,0.83
2022-11-12T16:41:14.627Z,0.90
2022-11-12T16:43:42.095Z,1.50
2022-11-12T16:46:15.135Z,0.93
2022-11-12T16:48:42.605Z,0.70
2022-11-12T16:51:17.931Z,0.57
2022-11-12T16:53:45.619Z,0.50
2022-11-12T16:56:16.627Z,0.63
2022-11-12T16:58:44.183Z,2.00
2022-11-12T17:01:14.618Z,4.83
2022-11-12T17:03:42.442Z,4.83
2022-11-12T17:06:09.969Z,2.30
2022-11-12T17:08:39.881Z,1.87
2022-11-12T17:11:09.470Z,1.77
2022-11-12T17:13:38.739Z,1.30
2022-11-12T17:16:07.224Z,1.30
2022-11-12T17:18:35.069Z,1.40
2022-11-12T17:21:09.884Z,1.20
2022-11-12T17:23:37.341Z,1.23
2022-11-12T17:26:05.505Z,1.27
2022-11-12T17:28:33.188Z,0.90
2022-11-12T17:31:04.659Z,0.90
2022-11-12T17:33:32.523Z,1.60
2022-11-12T17:36:03.387Z,1.33
2022-11-12T17:38:31.149Z,1.43
2022-11-12T17:40:59.120Z,1.53
2022-11-12T17:43:26.947Z,1.40
2022-11-12T17:45:55.395Z,0.90
2022-11-12T17:48:23.128Z,0.80
2022-11-12T17:50:50.722Z,0.70
2022-11-12T17:53:18.173Z,0.67
2022-11-12T17:55:45.657Z,1.03
2022-11-12T17:58:13.060Z,1.07
2022-11-12T18:00:41.021Z,1.00
2022-11-12T18:03:08.423Z,0.97
2022-11-12T18:05:35.855Z,0.60
2022-11-12T18:08:03.390Z,0.80
2022-11-12T18:10:30.840Z,1.10
2022-11-12T18:12:59.179Z,1.27
2022-11-12T18:15:26.643Z,1.10
2022-11-12T18:17:54.209Z,1.10
2022-11-12T18:20:21.639Z,0.70
2022-11-12T18:22:49.148Z,0.57
2022-11-12T18:25:16.630Z,0.60
2022-11-12T18:27:44.694Z,1.10
2022-11-12T18:30:17.978Z,3.10
2022-11-12T18:32:46.682Z,2.37
2022-11-12T18:35:14.074Z,1.37
2022-11-12T18:37:41.458Z,1.07
2022-11-12T18:40:09.498Z,1.30
2022-11-12T18:42:36.865Z,1.47
2022-11-12T18:45:04.587Z,1.40
2022-11-12T18:47:32.045Z,1.27
2022-11-12T18:50:02.818Z,1.20
2022-11-12T18:52:33.044Z,1.10
2022-11-12T18:55:00.460Z,1.20
2022-11-12T18:57:27.838Z,1.30
2022-11-12T18:59:55.305Z,1.10
2022-11-12T19:02:22.702Z,1.10
2022-11-12T19:04:50.737Z,1.20
2022-11-12T19:07:18.352Z,1.30
2022-11-12T19:09:45.764Z,1.70
2022-11-12T19:12:13.240Z,1.57
2022-11-12T19:14:40.669Z,0.90
2022-11-12T19:17:08.156Z,0.97
2022-11-12T19:19:35.619Z,1.10
2022-11-12T19:22:03.105Z,1.87
2022-11-12T19:24:31.400Z,1.60
2022-11-12T19:26:58.805Z,2.57
2022-11-12T19:29:26.139Z,4.70
2022-11-12T19:31:53.616Z,2.33
2022-11-12T19:34:21.115Z,1.90
2022-11-12T19:36:53.192Z,1.10
2022-11-12T19:39:33.356Z,0.80
2022-11-12T19:42:00.772Z,0.93
2022-11-12T19:44:28.178Z,1.10
2022-11-12T19:46:55.616Z,1.20
2022-11-12T19:49:23.057Z,1.20
2022-11-12T19:51:50.583Z,1.20
2022-11-12T19:54:18.011Z,1.20
2022-11-12T19:56:45.473Z,0.93
2022-11-12T19:59:12.887Z,1.07
2022-11-12T20:01:40.413Z,0.90
2022-11-12T20:04:07.838Z,1.00
2022-11-12T20:06:37.317Z,0.97
2022-11-12T20:09:05.055Z,0.87
2022-11-12T20:11:32.419Z,0.70
2022-11-12T20:13:59.794Z,0.90
2022-11-12T20:16:27.178Z,1.00
2022-11-12T20:18:55.770Z,1.20
2022-11-12T20:21:24.002Z,1.43
2022-11-12T20:23:51.526Z,1.10
2022-11-12T20:26:18.930Z,1.00
2022-11-12T20:28:46.370Z,1.20
2022-11-12T20:31:15.163Z,0.97
2022-11-12T20:33:42.960Z,1.10
2022-11-12T20:36:15.840Z,1.20
2022-11-12T20:38:45.400Z,1.03
2022-11-12T20:41:16.949Z,1.07
2022-11-12T20:43:44.567Z,1.20
2022-11-12T20:46:12.444Z,0.90
2022-11-12T20:48:43.260Z,0.70
2022-11-12T20:51:28.124Z,1.13
2022-11-12T20:53:59.892Z,1.00
2022-11-12T20:56:28.539Z,1.03
2022-11-12T20:58:56.001Z,1.10
2022-11-12T21:01:24.237Z,0.90
2022-11-12T21:03:52.038Z,1.10
2022-11-12T21:06:20.981Z,0.80
2022-11-12T21:08:48.418Z,0.63
2022-11-12T21:11:16.683Z,0.50
2022-11-12T21:13:44.369Z,0.63
2022-11-12T21:16:12.646Z,0.60
2022-11-12T21:18:40.394Z,0.90
2022-11-12T21:21:12.319Z,0.70
2022-11-12T21:23:41.304Z,0.70
2022-11-12T21:26:12.938Z,0.60
2022-11-12T21:28:42.875Z,0.70
2022-11-12T21:31:11.903Z,0.97
2022-11-12T21:33:39.539Z,0.90
2022-11-12T21:36:11.775Z,0.90
2022-11-12T21:38:42.541Z,0.73
2022-11-12T21:41:11.459Z,0.70
2022-11-12T21:43:39.881Z,0.60
2022-11-12T21:46:08.350Z,0.77
2022-11-12T21:48:36.030Z,0.87
2022-11-12T21:51:12.122Z,0.80
2022-11-12T21:53:39.798Z,0.63
2022-11-12T21:56:17.414Z,0.63
2022-11-12T21:58:45.441Z,0.87
2022-11-12T22:01:20.225Z,0.60
2022-11-12T22:03:48.816Z,0.50
2022-11-12T22:06:16.485Z,0.57
2022-11-12T22:08:44.217Z,0.53
2022-11-12T22:11:12.778Z,0.50
2022-11-12T22:13:43.453Z,0.47
2022-11-12T22:16:10.873Z,0.60
2022-11-12T22:18:38.330Z,0.73
2022-11-12T22:21:07.246Z,0.60
2022-11-12T22:23:38.048Z,0.50
2022-11-12T22:26:06.381Z,0.40
2022-11-12T22:28:34.561Z,0.53
2022-11-12T22:31:06.061Z,0.60
2022-11-12T22:33:33.700Z,0.60
2022-11-12T22:36:11.477Z,0.50
2022-11-12T22:38:39.960Z,0.70
2022-11-12T22:41:08.943Z,0.60
2022-11-12T22:43:39.604Z,0.40
2022-11-12T22:46:12.854Z,0.50
2022-11-12T22:48:40.789Z,0.60
2022-11-12T22:51:09.562Z,0.70
2022-11-12T22:53:36.899Z,0.60
2022-11-12T22:56:15.200Z,0.50
2022-11-12T22:58:43.522Z,0.73
2022-11-12T23:01:12.368Z,0.50
2022-11-12T23:03:39.803Z,0.50
2022-11-12T23:06:07.412Z,0.40
2022-11-12T23:08:36.228Z,0.60
2022-11-12T23:11:05.160Z,0.60
2022-11-12T23:13:32.587Z,0.50
2022-11-12T23:16:00.444Z,0.60
2022-11-12T23:18:28.040Z,0.40
2022-11-12T23:20:55.725Z,0.50
2022-11-12T23:23:23.188Z,0.30
2022-11-12T23:25:50.515Z,0.50
2022-11-12T23:28:17.923Z,0.50
2022-11-12T23:30:49.898Z,0.33
2022-11-12T23:33:17.296Z,0.50
2022-11-12T23:35:44.723Z,0.50
2022-11-12T23:38:12.074Z,0.20
2022-11-12T23:40:39.398Z,0.40
2022-11-12T23:43:06.803Z,0.40
2022-11-12T23:45:38.421Z,0.40
2022-11-12T23:48:06.047Z,0.30
2022-11-12T23:50:33.510Z,0.30
2022-11-12T23:53:00.934Z,0.40
2022-11-12T23:55:29.427Z,0.20
2022-11-12T23:57:56.944Z,0.40
